createdAt,value
2018-09-24T00:01:19.504Z,99555.56
2018-09-24T00:03:48.230Z,99565.61
2018-09-24T00:06:16.448Z,99574.41
2018-09-24T00:08:44.684Z,99569.27
2018-09-24T00:11:12.906Z,99581.30
2018-09-24T00:13:41.202Z,99593.91
2018-09-24T00:16:09.519Z,99593.27
2018-09-24T00:18:37.849Z,99601.89
2018-09-24T00:21:06.084Z,99610.27
2018-09-24T00:23:34.315Z,99617.76
2018-09-24T00:26:02.517Z,99622.55
2018-09-24T00:28:30.739Z,99628.77
2018-09-24T00:30:59.822Z,99629.41
2018-09-24T00:33:28.002Z,99632.50
2018-09-24T00:35:56.128Z,99640.84
2018-09-24T00:38:24.294Z,99650.03
2018-09-24T00:40:52.436Z,99657.66
2018-09-24T00:43:20.612Z,99659.92
2018-09-24T00:45:49.165Z,99668.07
2018-09-24T00:48:17.403Z,99667.03
2018-09-24T00:50:45.552Z,99669.20
2018-09-24T00:53:13.719Z,99676.33
2018-09-24T00:55:41.960Z,99678.91
2018-09-24T00:58:10.212Z,99682.01
2018-09-24T01:00:38.466Z,99683.25
2018-09-24T01:03:06.859Z,99689.45
2018-09-24T01:05:35.182Z,99698.19
2018-09-24T01:08:03.946Z,99695.83
2018-09-24T01:10:32.111Z,99695.73
2018-09-24T01:13:00.245Z,99703.27
2018-09-24T01:15:28.561Z,99706.55
2018-09-24T01:17:56.851Z,99706.65
2018-09-24T01:20:25.016Z,99703.61
2018-09-24T01:22:53.271Z,99700.14
2018-09-24T01:25:21.354Z,99703.23
2018-09-24T01:27:49.623Z,99707.96
2018-09-24T01:30:17.964Z,99717.45
2018-09-24T01:32:46.126Z,99713.64
2018-09-24T01:35:14.310Z,99717.41
2018-09-24T01:37:42.502Z,99719.77
2018-09-24T01:40:10.687Z,99725.94
2018-09-24T01:42:38.886Z,99725.29
2018-09-24T01:45:07.076Z,99725.40
2018-09-24T01:47:35.258Z,99736.09
2018-09-24T01:50:06.578Z,99738.24
2018-09-24T01:52:34.759Z,99736.47
2018-09-24T01:55:03.707Z,99736.53
2018-09-24T01:57:31.860Z,99738.53
2018-09-24T02:00:00.072Z,99747.16
2018-09-24T02:02:28.296Z,99748.96
2018-09-24T02:04:56.506Z,99741.19
2018-09-24T02:07:24.702Z,99745.47
2018-09-24T02:09:52.972Z,99742.66
2018-09-24T02:12:21.223Z,99743.13
2018-09-24T02:14:49.504Z,99741.14
2018-09-24T02:17:20.523Z,99746.78
2018-09-24T02:19:49.683Z,99761.81
2018-09-24T02:22:26.277Z,99754.12
2018-09-24T02:24:55.161Z,99762.00
2018-09-24T02:27:23.309Z,99768.47
2018-09-24T02:29:51.506Z,99770.53
2018-09-24T02:32:19.750Z,99776.08
2018-09-24T02:34:49.039Z,99775.98
2018-09-24T02:37:18.121Z,99782.45
2018-09-24T02:39:46.500Z,99780.84
2018-09-24T02:42:15.284Z,99784.71
2018-09-24T02:44:43.497Z,99778.97
2018-09-24T02:47:11.681Z,99793.71
2018-09-24T02:49:39.830Z,99789.22
2018-09-24T02:52:08.071Z,99794.27
2018-09-24T02:54:36.789Z,99792.76
2018-09-24T02:57:05.051Z,99801.50
2018-09-24T02:59:33.222Z,99801.95
2018-09-24T03:02:01.440Z,99811.55
2018-09-24T03:04:29.663Z,99822.41
2018-09-24T03:06:57.881Z,99821.75
2018-09-24T03:09:26.076Z,99821.20
2018-09-24T03:11:54.399Z,99829.54
2018-09-24T03:14:24.194Z,99829.54
2018-09-24T03:16:53.115Z,99829.90
2018-09-24T03:19:21.398Z,99831.11
2018-09-24T03:21:49.652Z,99838.12
2018-09-24T03:24:17.871Z,99847.81
2018-09-24T03:26:46.031Z,99848.06
2018-09-24T03:29:20.485Z,99853.73
2018-09-24T03:31:48.745Z,99867.20
2018-09-24T03:34:18.131Z,99866.88
2018-09-24T03:36:47.127Z,99874.81
2018-09-24T03:39:15.356Z,99872.67
2018-09-24T03:41:43.972Z,99876.38
2018-09-24T03:44:12.286Z,99880.83
2018-09-24T03:46:40.940Z,99882.25
2018-09-24T03:49:09.335Z,99880.98
2018-09-24T03:51:37.498Z,99881.89
2018-09-24T03:54:05.681Z,99898.03
2018-09-24T03:56:33.862Z,99895.59
2018-09-24T03:59:02.776Z,99893.20
2018-09-24T04:01:30.834Z,99898.77
2018-09-24T04:04:04.405Z,99895.68
2018-09-24T04:06:37.961Z,99901.59
2018-09-24T04:09:13.735Z,99912.88
2018-09-24T04:11:47.773Z,99921.52
2018-09-24T04:14:21.337Z,99924.99
2018-09-24T04:16:55.195Z,99930.61
2018-09-24T04:19:28.971Z,99933.54
2018-09-24T04:22:02.522Z,99941.02
2018-09-24T04:24:36.035Z,99944.28
2018-09-24T04:27:09.567Z,99950.46
2018-09-24T04:29:43.133Z,99960.88
2018-09-24T04:32:16.764Z,99973.90
2018-09-24T04:34:50.240Z,99971.50
2018-09-24T04:37:23.924Z,99983.48
2018-09-24T04:39:57.506Z,99980.64
2018-09-24T04:42:31.187Z,99982.67
2018-09-24T04:45:04.830Z,99979.66
2018-09-24T04:47:38.566Z,99975.41
2018-09-24T04:50:12.272Z,99982.55
2018-09-24T04:52:45.782Z,99980.05
2018-09-24T04:55:19.131Z,99985.08
2018-09-24T04:57:52.644Z,99982.94
2018-09-24T05:00:25.988Z,99990.91
2018-09-24T05:02:59.644Z,99993.39
2018-09-24T05:05:33.166Z,99996.46
2018-09-24T05:08:06.816Z,100013.59
2018-09-24T05:10:40.307Z,100018.83
2018-09-24T05:13:13.855Z,100026.27
2018-09-24T05:15:47.711Z,100028.33
2018-09-24T05:18:21.232Z,100037.50
2018-09-24T05:20:54.929Z,100049.70
2018-09-24T05:23:28.352Z,100045.85
2018-09-24T05:26:01.761Z,100047.31
2018-09-24T05:28:35.260Z,100047.66
2018-09-24T05:31:08.886Z,100054.67
2018-09-24T05:33:42.606Z,100065.80
2018-09-24T05:36:16.050Z,100061.46
2018-09-24T05:38:49.611Z,100075.19
2018-09-24T05:41:23.177Z,100076.27
2018-09-24T05:43:56.843Z,100080.20
2018-09-24T05:46:30.547Z,100084.81
2018-09-24T05:49:04.316Z,100096.98
2018-09-24T05:51:37.891Z,100095.82
2018-09-24T05:54:11.770Z,100100.80
2018-09-24T05:56:45.246Z,100097.33
2018-09-24T05:59:18.882Z,100106.14
2018-09-24T06:01:52.538Z,100111.84
2018-09-24T06:04:26.144Z,100123.97
2018-09-24T06:06:59.988Z,100133.53
2018-09-24T06:09:33.457Z,100133.45
2018-09-24T06:12:07.070Z,100140.70
2018-09-24T06:14:40.657Z,100140.39
2018-09-24T06:17:14.318Z,100143.23
2018-09-24T06:19:48.023Z,100144.52
2018-09-24T06:22:21.467Z,100140.84
2018-09-24T06:24:55.090Z,100142.25
2018-09-24T06:27:28.787Z,100151.88
2018-09-24T06:30:02.937Z,100154.98
2018-09-24T06:32:36.397Z,100162.35
2018-09-24T06:35:10.048Z,100165.52
2018-09-24T06:37:43.599Z,100172.04
2018-09-24T06:40:17.347Z,100172.77
2018-09-24T06:42:50.816Z,100173.71
2018-09-24T06:45:24.313Z,100175.10
2018-09-24T06:47:57.923Z,100178.28
2018-09-24T06:50:31.531Z,100179.32
2018-09-24T06:53:05.123Z,100187.00
2018-09-24T06:55:38.720Z,100190.74
2018-09-24T06:58:12.904Z,100197.19
2018-09-24T07:00:46.485Z,100206.44
2018-09-24T07:03:20.847Z,100205.28
2018-09-24T07:05:54.880Z,100208.02
2018-09-24T07:08:28.342Z,100213.67
2018-09-24T07:11:01.864Z,100224.68
2018-09-24T07:13:35.449Z,100225.47
2018-09-24T07:16:08.912Z,100231.55
2018-09-24T07:18:42.542Z,100231.01
2018-09-24T07:21:16.130Z,100239.50
2018-09-24T07:23:49.707Z,100237.70
2018-09-24T07:26:23.170Z,100237.98
2018-09-24T07:28:56.699Z,100242.77
2018-09-24T07:31:30.233Z,100248.98
2018-09-24T07:34:03.812Z,100243.84
2018-09-24T07:36:37.511Z,100251.70
2018-09-24T07:39:14.571Z,100255.82
2018-09-24T07:41:48.938Z,100260.73
2018-09-24T07:44:22.524Z,100258.80
2018-09-24T07:46:56.068Z,100259.97
2018-09-24T07:49:29.640Z,100273.11
2018-09-24T07:52:03.199Z,100269.18
2018-09-24T07:54:36.761Z,100277.85
2018-09-24T07:57:10.455Z,100277.22
2018-09-24T07:59:44.022Z,100286.06
2018-09-24T08:02:17.663Z,100288.16
2018-09-24T08:04:51.201Z,100290.45
2018-09-24T08:07:24.685Z,100288.41
2018-09-24T08:09:58.107Z,100292.37
2018-09-24T08:12:31.578Z,100286.53
2018-09-24T08:15:05.225Z,100295.95
2018-09-24T08:17:38.784Z,100304.61
2018-09-24T08:20:12.275Z,100311.20
2018-09-24T08:22:45.931Z,100311.20
2018-09-24T08:25:19.518Z,100311.21
2018-09-24T08:27:53.419Z,100309.89
2018-09-24T08:30:27.027Z,100313.47
2018-09-24T08:33:00.696Z,100317.80
2018-09-24T08:35:34.461Z,100326.45
2018-09-24T08:38:07.988Z,100330.04
2018-09-24T08:40:41.554Z,100325.63
2018-09-24T08:43:15.128Z,100327.49
2018-09-24T08:45:48.796Z,100322.30
2018-09-24T08:48:22.397Z,100332.55
2018-09-24T08:50:55.850Z,100334.19
2018-09-24T08:53:29.657Z,100333.30
2018-09-24T08:56:03.075Z,100341.27
2018-09-24T08:58:36.838Z,100342.55
2018-09-24T09:01:10.500Z,100339.27
2018-09-24T09:03:44.250Z,100346.87
2018-09-24T09:06:17.903Z,100341.87
2018-09-24T09:08:51.601Z,100344.60
2018-09-24T09:11:25.333Z,100348.66
2018-09-24T09:13:59.159Z,100347.80
2018-09-24T09:16:32.810Z,100348.39
2018-09-24T09:19:06.409Z,100358.17
2018-09-24T09:21:40.110Z,100364.99
2018-09-24T09:24:13.835Z,100361.36
2018-09-24T09:26:47.522Z,100351.73
2018-09-24T09:29:21.188Z,100351.20
2018-09-24T09:31:55.347Z,100360.00
2018-09-24T09:34:29.042Z,100361.24
2018-09-24T09:37:02.654Z,100353.22
2018-09-24T09:39:36.082Z,100355.05
2018-09-24T09:42:09.683Z,100358.45
2018-09-24T09:44:43.305Z,100359.37
2018-09-24T09:47:16.928Z,100355.63
2018-09-24T09:49:50.654Z,100354.50
2018-09-24T09:52:24.199Z,100350.70
2018-09-24T09:54:57.701Z,100345.56
2018-09-24T09:57:31.321Z,100346.38
2018-09-24T10:00:04.798Z,100347.23
2018-09-24T10:02:38.420Z,100339.83
2018-09-24T10:05:12.219Z,100340.42
2018-09-24T10:07:45.864Z,100341.89
2018-09-24T10:10:19.471Z,100341.54
2018-09-24T10:12:53.136Z,100350.45
2018-09-24T10:15:26.678Z,100346.41
2018-09-24T10:18:00.739Z,100350.83
2018-09-24T10:20:34.431Z,100346.14
2018-09-24T10:23:08.008Z,100341.33
2018-09-24T10:25:41.671Z,100336.42
2018-09-24T10:28:15.424Z,100333.84
2018-09-24T10:30:48.941Z,100335.64
2018-09-24T10:33:22.583Z,100344.34
2018-09-24T10:35:56.269Z,100339.89
2018-09-24T10:38:29.883Z,100339.44
2018-09-24T10:41:03.531Z,100332.17
2018-09-24T10:43:37.244Z,100325.20
2018-09-24T10:46:11.003Z,100339.88
2018-09-24T10:48:44.412Z,100336.22
2018-09-24T10:51:17.969Z,100344.33
2018-09-24T10:53:51.641Z,100353.08
2018-09-24T10:56:25.268Z,100351.09
2018-09-24T10:58:59.083Z,100347.73
2018-09-24T11:01:32.740Z,100354.82
2018-09-24T11:04:06.531Z,100358.30
2018-09-24T11:06:40.125Z,100362.06
2018-09-24T11:09:14.265Z,100363.03
2018-09-24T11:11:47.860Z,100351.25
2018-09-24T11:14:21.533Z,100354.23
2018-09-24T11:16:55.283Z,100353.59
2018-09-24T11:19:29.236Z,100350.16
2018-09-24T11:22:02.973Z,100353.66
2018-09-24T11:24:36.556Z,100361.10
2018-09-24T11:27:09.956Z,100358.28
2018-09-24T11:29:43.684Z,100355.06
2018-09-24T11:32:17.307Z,100349.13
2018-09-24T11:34:50.856Z,100349.72
2018-09-24T11:37:24.449Z,100343.11
2018-09-24T11:39:58.024Z,100335.36
2018-09-24T11:42:32.793Z,100327.63
2018-09-24T11:45:08.983Z,100320.88
2018-09-24T11:47:43.467Z,100326.59
2018-09-24T11:50:18.565Z,100315.49
2018-09-24T11:52:52.165Z,100308.73
2018-09-24T11:55:26.219Z,100307.07
2018-09-24T11:58:00.335Z,100309.16
2018-09-24T12:00:33.838Z,100304.78
2018-09-24T12:03:07.637Z,100301.05
2018-09-24T12:05:41.479Z,100307.80
2018-09-24T12:08:14.944Z,100307.34
2018-09-24T12:10:48.640Z,100314.27
2018-09-24T12:13:22.256Z,100304.51
2018-09-24T12:15:55.887Z,100302.98
2018-09-24T12:18:29.474Z,100311.35
2018-09-24T12:21:03.095Z,100316.66
2018-09-24T12:23:36.657Z,100322.98
2018-09-24T12:26:10.205Z,100313.02
2018-09-24T12:28:43.799Z,100313.92
2018-09-24T12:31:17.523Z,100314.48
2018-09-24T12:33:51.043Z,100305.81
2018-09-24T12:36:24.710Z,100304.96
2018-09-24T12:38:58.270Z,100299.59
2018-09-24T12:41:32.093Z,100296.60
2018-09-24T12:44:05.698Z,100296.95
2018-09-24T12:46:39.291Z,100300.71
2018-09-24T12:49:12.908Z,100298.00
2018-09-24T12:51:46.454Z,100302.98
2018-09-24T12:54:20.194Z,100303.80
2018-09-24T12:56:53.695Z,100298.50
2018-09-24T12:59:27.259Z,100299.77
2018-09-24T13:02:00.972Z,100300.95
2018-09-24T13:04:34.662Z,100295.16
2018-09-24T13:07:08.291Z,100298.27
2018-09-24T13:09:41.738Z,100304.87
2018-09-24T13:12:15.216Z,100295.95
2018-09-24T13:14:48.864Z,100295.81
2018-09-24T13:17:22.464Z,100300.86
2018-09-24T13:19:56.063Z,100296.55
2018-09-24T13:22:29.564Z,100301.43
2018-09-24T13:25:04.013Z,100289.88
2018-09-24T13:27:37.488Z,100290.41
2018-09-24T13:30:11.149Z,100298.16
2018-09-24T13:32:44.929Z,100302.52
2018-09-24T13:35:18.597Z,100296.91
2018-09-24T13:37:52.189Z,100296.46
2018-09-24T13:40:25.901Z,100294.95
2018-09-24T13:42:59.548Z,100293.86
2018-09-24T13:45:33.217Z,100292.50
2018-09-24T13:48:06.754Z,100295.90
2018-09-24T13:50:40.352Z,100296.09
2018-09-24T13:53:13.979Z,100291.33
2018-09-24T13:55:47.558Z,100295.16
2018-09-24T13:58:21.253Z,100290.27
2018-09-24T14:00:54.769Z,100283.84
2018-09-24T14:03:28.308Z,100281.04
2018-09-24T14:06:01.889Z,100288.55
2018-09-24T14:08:35.663Z,100284.50
2018-09-24T14:11:09.237Z,100284.66
2018-09-24T14:13:42.973Z,100287.29
2018-09-24T14:16:16.617Z,100282.50
2018-09-24T14:18:50.313Z,100277.56
2018-09-24T14:21:23.824Z,100272.13
2018-09-24T14:23:57.456Z,100272.80
2018-09-24T14:26:31.060Z,100275.34
2018-09-24T14:29:04.775Z,100272.44
2018-09-24T14:31:38.441Z,100271.85
2018-09-24T14:34:12.218Z,100268.13
2018-09-24T14:36:45.892Z,100262.88
2018-09-24T14:39:19.509Z,100262.38
2018-09-24T14:41:53.243Z,100270.86
2018-09-24T14:44:26.926Z,100268.02
2018-09-24T14:47:00.382Z,100269.03
2018-09-24T14:49:33.980Z,100260.75
2018-09-24T14:52:07.683Z,100266.09
2018-09-24T14:54:41.279Z,100265.23
2018-09-24T14:57:14.740Z,100259.19
2018-09-24T14:59:48.413Z,100262.59
2018-09-24T15:02:21.968Z,100254.75
2018-09-24T15:04:55.582Z,100256.41
2018-09-24T15:07:29.361Z,100261.94
2018-09-24T15:10:03.003Z,100273.23
2018-09-24T15:12:36.616Z,100261.37
2018-09-24T15:15:10.060Z,100271.53
2018-09-24T15:17:43.671Z,100267.89
2018-09-24T15:20:17.475Z,100268.58
2018-09-24T15:22:51.188Z,100266.84
2018-09-24T15:25:24.802Z,100268.77
2018-09-24T15:27:58.234Z,100268.15
2018-09-24T15:30:31.871Z,100265.80
2018-09-24T15:33:05.495Z,100265.25
2018-09-24T15:35:39.431Z,100263.34
2018-09-24T15:38:13.269Z,100265.27
2018-09-24T15:40:46.965Z,100265.36
2018-09-24T15:43:20.429Z,100265.05
2018-09-24T15:45:54.111Z,100265.05
2018-09-24T15:48:27.740Z,100261.73
2018-09-24T15:51:01.528Z,100265.97
2018-09-24T15:53:35.157Z,100261.13
2018-09-24T15:56:08.759Z,100265.05
2018-09-24T15:58:42.682Z,100262.82
2018-09-24T16:01:16.406Z,100268.96
2018-09-24T16:03:49.962Z,100272.11
2018-09-24T16:06:23.462Z,100273.44
2018-09-24T16:08:57.065Z,100270.28
2018-09-24T16:11:30.539Z,100277.29
2018-09-24T16:14:03.896Z,100277.29
2018-09-24T16:16:37.472Z,100280.41
2018-09-24T16:19:11.769Z,100280.61
2018-09-24T16:21:45.279Z,100279.12
2018-09-24T16:24:18.846Z,100290.03
2018-09-24T16:26:52.380Z,100285.39
2018-09-24T16:29:26.095Z,100289.78
2018-09-24T16:31:59.672Z,100298.48
2018-09-24T16:34:33.289Z,100291.09
2018-09-24T16:37:06.971Z,100299.16
2018-09-24T16:39:40.611Z,100305.13
2018-09-24T16:42:14.249Z,100305.87
2018-09-24T16:44:47.683Z,100309.99
2018-09-24T16:47:21.292Z,100305.66
2018-09-24T16:49:55.006Z,100309.49
2018-09-24T16:52:28.865Z,100313.67
2018-09-24T16:55:02.535Z,100313.72
2018-09-24T16:57:36.032Z,100323.60
2018-09-24T17:00:09.700Z,100318.84
2018-09-24T17:02:44.032Z,100318.92
2018-09-24T17:05:18.110Z,100321.06
2018-09-24T17:07:51.839Z,100317.20
2018-09-24T17:10:25.460Z,100323.19
2018-09-24T17:12:59.246Z,100326.78
2018-09-24T17:15:32.796Z,100328.16
2018-09-24T17:18:06.254Z,100336.89
2018-09-24T17:20:39.888Z,100337.83
2018-09-24T17:23:13.610Z,100334.53
2018-09-24T17:25:47.199Z,100336.64
2018-09-24T17:28:20.637Z,100347.58
2018-09-24T17:30:55.692Z,100347.17
2018-09-24T17:33:29.348Z,100353.57
2018-09-24T17:36:09.777Z,100350.34
2018-09-24T17:38:43.287Z,100360.58
2018-09-24T17:41:18.486Z,100363.30
2018-09-24T17:43:52.062Z,100364.84
2018-09-24T17:46:25.781Z,100365.64
2018-09-24T17:48:59.315Z,100372.11
2018-09-24T17:51:32.932Z,100375.16
2018-09-24T17:54:06.601Z,100380.39
2018-09-24T17:56:40.075Z,100379.05
2018-09-24T17:59:13.708Z,100386.83
2018-09-24T18:01:47.211Z,100387.77
2018-09-24T18:04:20.911Z,100388.09
2018-09-24T18:06:54.642Z,100387.92
2018-09-24T18:09:28.324Z,100395.88
2018-09-24T18:12:01.934Z,100395.38
2018-09-24T18:14:35.526Z,100402.81
2018-09-24T18:17:09.095Z,100402.04
2018-09-24T18:19:42.592Z,100408.78
2018-09-24T18:22:16.331Z,100408.33
2018-09-24T18:24:50.517Z,100409.59
2018-09-24T18:27:24.091Z,100411.76
2018-09-24T18:29:57.579Z,100416.09
2018-09-24T18:32:31.031Z,100418.17
2018-09-24T18:35:04.607Z,100423.69
2018-09-24T18:37:38.328Z,100428.30
2018-09-24T18:40:11.906Z,100431.25
2018-09-24T18:42:45.591Z,100432.11
2018-09-24T18:45:19.227Z,100431.94
2018-09-24T18:47:52.808Z,100435.12
2018-09-24T18:50:26.516Z,100435.89
2018-09-24T18:53:00.302Z,100441.44
2018-09-24T18:55:33.978Z,100446.55
2018-09-24T18:58:07.421Z,100451.16
2018-09-24T19:00:41.096Z,100452.33
2018-09-24T19:03:14.609Z,100452.03
2018-09-24T19:05:48.111Z,100457.11
2018-09-24T19:08:21.651Z,100449.47
2018-09-24T19:10:55.278Z,100454.14
2018-09-24T19:13:28.797Z,100457.84
2018-09-24T19:16:02.555Z,100455.45
2018-09-24T19:18:36.128Z,100461.31
2018-09-24T19:21:09.537Z,100455.91
2018-09-24T19:23:43.314Z,100455.28
2018-09-24T19:26:16.883Z,100462.79
2018-09-24T19:28:50.443Z,100468.88
2018-09-24T19:31:24.114Z,100466.55
2018-09-24T19:33:57.522Z,100462.47
2018-09-24T19:36:30.991Z,100461.23
2018-09-24T19:39:04.447Z,100467.64
2018-09-24T19:41:38.145Z,100472.97
2018-09-24T19:44:11.767Z,100469.03
2018-09-24T19:46:46.235Z,100474.22
2018-09-24T19:49:19.932Z,100471.35
2018-09-24T19:51:53.732Z,100475.95
2018-09-24T19:54:27.297Z,100479.69
2018-09-24T19:57:00.880Z,100480.09
2018-09-24T19:59:34.598Z,100485.97
2018-09-24T20:02:08.178Z,100483.70
2018-09-24T20:04:41.787Z,100490.12
2018-09-24T20:07:15.215Z,100481.80
2018-09-24T20:09:48.855Z,100491.13
2018-09-24T20:12:22.491Z,100489.13
2018-09-24T20:14:55.985Z,100488.97
2018-09-24T20:17:29.534Z,100496.48
2018-09-24T20:20:03.155Z,100491.67
2018-09-24T20:22:36.673Z,100491.36
2018-09-24T20:25:10.287Z,100495.46
2018-09-24T20:27:44.102Z,100497.39
2018-09-24T20:30:17.525Z,100497.31
2018-09-24T20:32:51.200Z,100506.48
2018-09-24T20:35:24.696Z,100507.75
2018-09-24T20:37:58.127Z,100503.80
2018-09-24T20:40:31.847Z,100501.34
2018-09-24T20:43:05.594Z,100508.77
2018-09-24T20:45:39.204Z,100512.75
2018-09-24T20:48:12.677Z,100513.98
2018-09-24T20:50:46.020Z,100520.18
2018-09-24T20:53:19.543Z,100516.20
2018-09-24T20:55:53.271Z,100516.86
2018-09-24T20:58:26.707Z,100523.13
2018-09-24T21:01:00.287Z,100526.34
2018-09-24T21:03:33.919Z,100532.66
2018-09-24T21:06:07.507Z,100533.39
2018-09-24T21:08:41.047Z,100539.88
2018-09-24T21:11:14.482Z,100543.41
2018-09-24T21:13:48.150Z,100535.23
2018-09-24T21:16:21.725Z,100539.42
2018-09-24T21:18:55.279Z,100543.33
2018-09-24T21:21:28.912Z,100547.27
2018-09-24T21:24:02.442Z,100541.76
2018-09-24T21:26:35.799Z,100544.05
2018-09-24T21:29:09.449Z,100540.47
2018-09-24T21:31:42.899Z,100538.23
2018-09-24T21:34:16.423Z,100543.28
2018-09-24T21:36:50.129Z,100543.70
2018-09-24T21:39:24.153Z,100537.66
2018-09-24T21:41:57.656Z,100547.39
2018-09-24T21:44:31.231Z,100547.77
2018-09-24T21:47:04.785Z,100554.12
2018-09-24T21:49:38.179Z,100557.28
2018-09-24T21:52:11.840Z,100563.97
2018-09-24T21:54:45.344Z,100564.33
2018-09-24T21:57:19.007Z,100569.22
2018-09-24T22:02:52.644Z,100560.52
2018-09-24T22:05:26.123Z,100569.06
2018-09-24T22:07:59.624Z,100564.89
2018-09-24T22:10:33.040Z,100570.56
2018-09-24T22:13:06.579Z,100575.63
2018-09-24T22:15:40.211Z,100579.13
2018-09-24T22:18:13.910Z,100580.45
2018-09-24T22:20:47.347Z,100582.50
2018-09-24T22:23:21.025Z,100582.87
2018-09-24T22:25:54.468Z,100583.71
2018-09-24T22:28:28.093Z,100582.20
2018-09-24T22:31:01.498Z,100585.79
2018-09-24T22:33:35.047Z,100585.53
2018-09-24T22:36:08.712Z,100597.67
2018-09-24T22:38:42.165Z,100597.35
2018-09-24T22:41:15.622Z,100606.58
2018-09-24T22:43:49.094Z,100596.76
2018-09-24T22:46:22.688Z,100608.02
2018-09-24T22:48:56.137Z,100607.95
2018-09-24T22:51:29.883Z,100611.09
2018-09-24T22:54:03.275Z,100614.95
2018-09-24T22:56:36.701Z,100600.72
2018-09-24T22:59:10.210Z,100608.27
2018-09-24T23:01:43.727Z,100609.00
2018-09-24T23:04:17.499Z,100611.75
2018-09-24T23:06:51.083Z,100607.44
2018-09-24T23:09:24.531Z,100610.50
2018-09-24T23:11:58.291Z,100616.52
2018-09-24T23:14:31.795Z,100610.92
2018-09-24T23:17:05.326Z,100611.89
2018-09-24T23:19:38.907Z,100610.80
2018-09-24T23:22:12.365Z,100608.11
2018-09-24T23:24:45.900Z,100619.38
2018-09-24T23:27:19.344Z,100622.07
2018-09-24T23:29:52.975Z,100624.75
2018-09-24T23:32:26.563Z,100632.64
2018-09-24T23:35:00.187Z,100630.45
2018-09-24T23:37:33.667Z,100633.73
2018-09-24T23:40:14.010Z,100638.13
2018-09-24T23:42:47.695Z,100637.03
2018-09-24T23:45:21.431Z,100638.36
2018-09-24T23:47:55.011Z,100641.99
2018-09-24T23:50:28.699Z,100634.61
2018-09-24T23:53:02.052Z,100634.63
2018-09-24T23:55:35.699Z,100633.97
2018-09-24T23:58:09.110Z,100627.59
